sensor_id;sensor_type;location;lat;lon;timestamp;P1;durP1;ratioP1;P2;durP2;ratioP2
22648;SDS011;11491;41.942;24.220;2024-03-02T00:00:48;28.50;;;15.90;;
22648;SDS011;11491;41.942;24.220;2024-03-02T00:03:15;29.35;;;15.43;;
22648;SDS011;11491;41.942;24.220;2024-03-02T00:05:44;26.40;;;14.50;;
22648;SDS011;11491;41.942;24.220;2024-03-02T00:08:19;33.85;;;18.52;;
22648;SDS011;11491;41.942;24.220;2024-03-02T00:13:16;26.30;;;15.10;;
22648;SDS011;11491;41.942;24.220;2024-03-02T00:15:48;28.67;;;15.20;;
22648;SDS011;11491;41.942;24.220;2024-03-02T00:18:18;32.85;;;17.30;;
22648;SDS011;11491;41.942;24.220;2024-03-02T00:20:47;28.38;;;14.48;;
22648;SDS011;11491;41.942;24.220;2024-03-02T00:23:14;27.42;;;16.00;;
22648;SDS011;11491;41.942;24.220;2024-03-02T00:25:44;32.05;;;17.67;;
22648;SDS011;11491;41.942;24.220;2024-03-02T00:28:14;31.17;;;17.80;;
22648;SDS011;11491;41.942;24.220;2024-03-02T00:30:46;31.92;;;17.75;;
22648;SDS011;11491;41.942;24.220;2024-03-02T00:33:19;36.03;;;18.25;;
22648;SDS011;11491;41.942;24.220;2024-03-02T00:35:48;32.95;;;17.45;;
22648;SDS011;11491;41.942;24.220;2024-03-02T00:38:15;31.48;;;17.30;;
22648;SDS011;11491;41.942;24.220;2024-03-02T00:40:42;34.28;;;17.30;;
22648;SDS011;11491;41.942;24.220;2024-03-02T00:43:11;32.60;;;17.45;;
22648;SDS011;11491;41.942;24.220;2024-03-02T00:46:00;32.08;;;17.83;;
22648;SDS011;11491;41.942;24.220;2024-03-02T00:48:27;31.65;;;17.05;;
22648;SDS011;11491;41.942;24.220;2024-03-02T00:50:57;29.77;;;16.85;;
22648;SDS011;11491;41.942;24.220;2024-03-02T00:53:25;30.20;;;17.17;;
22648;SDS011;11491;41.942;24.220;2024-03-02T00:55:52;32.72;;;17.52;;
22648;SDS011;11491;41.942;24.220;2024-03-02T00:58:19;36.58;;;19.80;;
22648;SDS011;11491;41.942;24.220;2024-03-02T01:00:46;30.50;;;18.80;;
22648;SDS011;11491;41.942;24.220;2024-03-02T01:03:13;26.20;;;15.93;;
22648;SDS011;11491;41.942;24.220;2024-03-02T01:05:41;29.13;;;16.67;;
22648;SDS011;11491;41.942;24.220;2024-03-02T01:08:10;28.90;;;15.20;;
22648;SDS011;11491;41.942;24.220;2024-03-02T01:10:36;32.83;;;18.70;;
22648;SDS011;11491;41.942;24.220;2024-03-02T01:13:03;33.22;;;18.80;;
22648;SDS011;11491;41.942;24.220;2024-03-02T01:15:30;31.35;;;18.17;;
22648;SDS011;11491;41.942;24.220;2024-03-02T01:17:58;26.63;;;15.95;;
22648;SDS011;11491;41.942;24.220;2024-03-02T01:20:25;28.92;;;14.98;;
22648;SDS011;11491;41.942;24.220;2024-03-02T01:22:52;25.77;;;14.63;;
22648;SDS011;11491;41.942;24.220;2024-03-02T01:25:20;28.35;;;13.80;;
22648;SDS011;11491;41.942;24.220;2024-03-02T01:27:47;24.90;;;14.15;;
22648;SDS011;11491;41.942;24.220;2024-03-02T01:30:13;22.77;;;12.95;;
22648;SDS011;11491;41.942;24.220;2024-03-02T01:32:40;22.25;;;12.35;;
22648;SDS011;11491;41.942;24.220;2024-03-02T01:35:07;22.30;;;12.68;;
22648;SDS011;11491;41.942;24.220;2024-03-02T01:37:34;21.90;;;12.15;;
22648;SDS011;11491;41.942;24.220;2024-03-02T01:40:01;20.27;;;11.95;;
22648;SDS011;11491;41.942;24.220;2024-03-02T01:42:35;26.20;;;13.00;;
22648;SDS011;11491;41.942;24.220;2024-03-02T01:45:03;32.22;;;12.80;;
22648;SDS011;11491;41.942;24.220;2024-03-02T01:47:31;24.67;;;12.32;;
22648;SDS011;11491;41.942;24.220;2024-03-02T01:49:58;19.17;;;11.05;;
22648;SDS011;11491;41.942;24.220;2024-03-02T01:52:26;17.85;;;10.68;;
22648;SDS011;11491;41.942;24.220;2024-03-02T01:54:53;18.27;;;11.05;;
22648;SDS011;11491;41.942;24.220;2024-03-02T01:57:20;20.13;;;12.52;;
22648;SDS011;11491;41.942;24.220;2024-03-02T01:59:48;20.75;;;12.15;;
22648;SDS011;11491;41.942;24.220;2024-03-02T02:02:15;15.07;;;9.52;;
22648;SDS011;11491;41.942;24.220;2024-03-02T02:04:42;17.10;;;10.77;;
22648;SDS011;11491;41.942;24.220;2024-03-02T02:07:09;18.92;;;11.15;;
22648;SDS011;11491;41.942;24.220;2024-03-02T02:09:36;20.10;;;11.63;;
22648;SDS011;11491;41.942;24.220;2024-03-02T02:12:03;18.73;;;11.48;;
22648;SDS011;11491;41.942;24.220;2024-03-02T02:14:32;18.10;;;11.13;;
22648;SDS011;11491;41.942;24.220;2024-03-02T02:17:00;19.83;;;11.57;;
22648;SDS011;11491;41.942;24.220;2024-03-02T02:19:27;18.17;;;11.18;;
22648;SDS011;11491;41.942;24.220;2024-03-02T02:21:55;22.00;;;12.20;;
22648;SDS011;11491;41.942;24.220;2024-03-02T02:24:21;24.17;;;15.07;;
22648;SDS011;11491;41.942;24.220;2024-03-02T02:26:48;18.77;;;12.23;;
22648;SDS011;11491;41.942;24.220;2024-03-02T02:29:15;22.92;;;13.80;;
22648;SDS011;11491;41.942;24.220;2024-03-02T02:31:42;25.58;;;15.57;;
22648;SDS011;11491;41.942;24.220;2024-03-02T02:34:09;24.95;;;15.23;;
22648;SDS011;11491;41.942;24.220;2024-03-02T02:36:36;23.02;;;13.73;;
22648;SDS011;11491;41.942;24.220;2024-03-02T02:39:06;25.73;;;14.35;;
22648;SDS011;11491;41.942;24.220;2024-03-02T02:41:36;29.67;;;17.25;;
22648;SDS011;11491;41.942;24.220;2024-03-02T02:44:02;27.60;;;17.85;;
22648;SDS011;11491;41.942;24.220;2024-03-02T02:46:29;33.03;;;17.75;;
22648;SDS011;11491;41.942;24.220;2024-03-02T02:48:56;28.65;;;16.75;;
22648;SDS011;11491;41.942;24.220;2024-03-02T02:51:23;27.30;;;16.40;;
22648;SDS011;11491;41.942;24.220;2024-03-02T02:53:50;33.97;;;17.75;;
22648;SDS011;11491;41.942;24.220;2024-03-02T02:56:18;35.25;;;19.27;;
22648;SDS011;11491;41.942;24.220;2024-03-02T02:58:45;31.92;;;17.45;;
22648;SDS011;11491;41.942;24.220;2024-03-02T03:01:12;25.92;;;15.05;;
22648;SDS011;11491;41.942;24.220;2024-03-02T03:03:38;22.83;;;13.93;;
22648;SDS011;11491;41.942;24.220;2024-03-02T03:06:06;25.00;;;15.50;;
22648;SDS011;11491;41.942;24.220;2024-03-02T03:08:32;20.80;;;13.38;;
22648;SDS011;11491;41.942;24.220;2024-03-02T03:10:59;23.00;;;14.25;;
22648;SDS011;11491;41.942;24.220;2024-03-02T03:13:27;25.17;;;15.25;;
22648;SDS011;11491;41.942;24.220;2024-03-02T03:15:54;21.52;;;13.75;;
22648;SDS011;11491;41.942;24.220;2024-03-02T03:18:21;22.35;;;13.70;;
22648;SDS011;11491;41.942;24.220;2024-03-02T03:20:48;21.15;;;13.43;;
22648;SDS011;11491;41.942;24.220;2024-03-02T03:23:15;19.90;;;12.65;;
22648;SDS011;11491;41.942;24.220;2024-03-02T03:25:42;21.05;;;12.50;;
22648;SDS011;11491;41.942;24.220;2024-03-02T03:28:09;20.88;;;13.07;;
22648;SDS011;11491;41.942;24.220;2024-03-02T03:30:37;20.42;;;12.75;;
22648;SDS011;11491;41.942;24.220;2024-03-02T03:33:04;18.52;;;12.23;;
22648;SDS011;11491;41.942;24.220;2024-03-02T03:35:32;17.45;;;12.40;;
22648;SDS011;11491;41.942;24.220;2024-03-02T03:37:59;19.15;;;11.80;;
22648;SDS011;11491;41.942;24.220;2024-03-02T03:40:26;19.38;;;12.27;;
22648;SDS011;11491;41.942;24.220;2024-03-02T03:42:53;18.80;;;12.00;;
22648;SDS011;11491;41.942;24.220;2024-03-02T03:45:21;18.52;;;11.75;;
22648;SDS011;11491;41.942;24.220;2024-03-02T03:47:52;18.45;;;12.05;;
22648;SDS011;11491;41.942;24.220;2024-03-02T03:50:19;17.02;;;10.85;;
22648;SDS011;11491;41.942;24.220;2024-03-02T03:52:46;17.02;;;11.60;;
22648;SDS011;11491;41.942;24.220;2024-03-02T03:55:12;21.67;;;15.27;;
22648;SDS011;11491;41.942;24.220;2024-03-02T03:57:39;21.40;;;15.23;;
22648;SDS011;11491;41.942;24.220;2024-03-02T04:00:07;17.83;;;12.10;;
22648;SDS011;11491;41.942;24.220;2024-03-02T04:02:35;17.75;;;11.85;;
22648;SDS011;11491;41.942;24.220;2024-03-02T04:05:03;18.95;;;12.20;;
22648;SDS011;11491;41.942;24.220;2024-03-02T04:07:34;20.48;;;13.95;;
22648;SDS011;11491;41.942;24.220;2024-03-02T04:10:06;19.77;;;13.48;;
22648;SDS011;11491;41.942;24.220;2024-03-02T04:12:34;22.40;;;12.98;;
22648;SDS011;11491;41.942;24.220;2024-03-02T04:15:01;20.88;;;14.93;;
22648;SDS011;11491;41.942;24.220;2024-03-02T04:17:29;21.88;;;13.82;;
22648;SDS011;11491;41.942;24.220;2024-03-02T04:19:58;24.05;;;14.82;;
22648;SDS011;11491;41.942;24.220;2024-03-02T04:22:26;20.83;;;13.00;;
22648;SDS011;11491;41.942;24.220;2024-03-02T04:24:53;19.17;;;12.52;;
22648;SDS011;11491;41.942;24.220;2024-03-02T04:27:20;18.52;;;12.30;;
22648;SDS011;11491;41.942;24.220;2024-03-02T04:29:45;19.50;;;12.63;;
22648;SDS011;11491;41.942;24.220;2024-03-02T04:32:12;21.50;;;12.50;;
22648;SDS011;11491;41.942;24.220;2024-03-02T04:34:39;21.98;;;14.18;;
22648;SDS011;11491;41.942;24.220;2024-03-02T04:37:06;20.60;;;14.18;;
22648;SDS011;11491;41.942;24.220;2024-03-02T04:39:35;26.67;;;17.25;;
22648;SDS011;11491;41.942;24.220;2024-03-02T04:42:02;22.02;;;14.48;;
22648;SDS011;11491;41.942;24.220;2024-03-02T04:44:29;21.52;;;14.73;;
22648;SDS011;11491;41.942;24.220;2024-03-02T04:46:55;21.70;;;14.20;;
22648;SDS011;11491;41.942;24.220;2024-03-02T04:49:22;21.65;;;14.68;;
22648;SDS011;11491;41.942;24.220;2024-03-02T04:51:49;26.85;;;18.58;;
22648;SDS011;11491;41.942;24.220;2024-03-02T04:54:16;26.23;;;17.25;;
22648;SDS011;11491;41.942;24.220;2024-03-02T04:56:44;34.30;;;20.35;;
22648;SDS011;11491;41.942;24.220;2024-03-02T04:59:14;34.70;;;24.08;;
22648;SDS011;11491;41.942;24.220;2024-03-02T05:01:41;55.67;;;32.85;;
22648;SDS011;11491;41.942;24.220;2024-03-02T05:04:08;68.63;;;42.50;;
22648;SDS011;11491;41.942;24.220;2024-03-02T05:06:36;57.70;;;35.40;;
22648;SDS011;11491;41.942;24.220;2024-03-02T05:09:04;46.58;;;26.70;;
22648;SDS011;11491;41.942;24.220;2024-03-02T05:11:31;32.58;;;20.65;;
22648;SDS011;11491;41.942;24.220;2024-03-02T05:14:28;27.70;;;17.15;;
22648;SDS011;11491;41.942;24.220;2024-03-02T05:16:55;31.60;;;20.48;;
22648;SDS011;11491;41.942;24.220;2024-03-02T05:19:21;43.42;;;23.45;;
22648;SDS011;11491;41.942;24.220;2024-03-02T05:21:48;27.77;;;17.50;;
22648;SDS011;11491;41.942;24.220;2024-03-02T05:24:15;35.92;;;15.68;;
22648;SDS011;11491;41.942;24.220;2024-03-02T05:26:41;29.75;;;18.65;;
22648;SDS011;11491;41.942;24.220;2024-03-02T05:29:08;57.20;;;25.92;;
22648;SDS011;11491;41.942;24.220;2024-03-02T05:31:36;55.50;;;29.65;;
22648;SDS011;11491;41.942;24.220;2024-03-02T05:34:03;48.88;;;22.58;;
22648;SDS011;11491;41.942;24.220;2024-03-02T05:36:30;25.10;;;15.25;;
22648;SDS011;11491;41.942;24.220;2024-03-02T05:38:57;30.85;;;19.65;;
22648;SDS011;11491;41.942;24.220;2024-03-02T05:41:24;24.38;;;14.32;;
22648;SDS011;11491;41.942;24.220;2024-03-02T05:43:50;29.50;;;15.40;;
22648;SDS011;11491;41.942;24.220;2024-03-02T05:46:17;31.70;;;18.50;;
22648;SDS011;11491;41.942;24.220;2024-03-02T05:48:45;33.42;;;20.45;;
22648;SDS011;11491;41.942;24.220;2024-03-02T05:51:12;46.88;;;29.23;;
22648;SDS011;11491;41.942;24.220;2024-03-02T05:53:39;46.15;;;35.53;;
22648;SDS011;11491;41.942;24.220;2024-03-02T05:56:06;41.17;;;27.52;;
22648;SDS011;11491;41.942;24.220;2024-03-02T05:58:33;29.77;;;19.30;;
22648;SDS011;11491;41.942;24.220;2024-03-02T06:01:13;29.52;;;18.98;;
22648;SDS011;11491;41.942;24.220;2024-03-02T06:03:39;26.80;;;15.75;;
22648;SDS011;11491;41.942;24.220;2024-03-02T06:06:08;32.08;;;20.02;;
22648;SDS011;11491;41.942;24.220;2024-03-02T06:08:35;24.58;;;16.98;;
22648;SDS011;11491;41.942;24.220;2024-03-02T06:11:01;24.42;;;16.17;;
22648;SDS011;11491;41.942;24.220;2024-03-02T06:13:28;25.10;;;15.35;;
22648;SDS011;11491;41.942;24.220;2024-03-02T06:15:55;30.13;;;18.70;;
22648;SDS011;11491;41.942;24.220;2024-03-02T06:18:22;30.33;;;19.83;;
22648;SDS011;11491;41.942;24.220;2024-03-02T06:20:49;28.08;;;17.58;;
22648;SDS011;11491;41.942;24.220;2024-03-02T06:23:17;25.77;;;18.17;;
22648;SDS011;11491;41.942;24.220;2024-03-02T06:25:43;38.33;;;23.33;;
22648;SDS011;11491;41.942;24.220;2024-03-02T06:28:10;38.22;;;25.02;;
22648;SDS011;11491;41.942;24.220;2024-03-02T06:30:37;26.23;;;18.10;;
22648;SDS011;11491;41.942;24.220;2024-03-02T06:33:04;30.88;;;17.67;;
22648;SDS011;11491;41.942;24.220;2024-03-02T06:35:31;33.75;;;21.95;;
22648;SDS011;11491;41.942;24.220;2024-03-02T06:37:58;25.63;;;16.90;;
22648;SDS011;11491;41.942;24.220;2024-03-02T06:40:26;21.27;;;12.55;;
22648;SDS011;11491;41.942;24.220;2024-03-02T06:42:52;27.35;;;15.90;;
22648;SDS011;11491;41.942;24.220;2024-03-02T06:45:19;26.80;;;14.80;;
22648;SDS011;11491;41.942;24.220;2024-03-02T06:47:46;29.25;;;15.98;;
22648;SDS011;11491;41.942;24.220;2024-03-02T06:50:13;21.90;;;13.73;;
22648;SDS011;11491;41.942;24.220;2024-03-02T06:52:39;22.58;;;13.23;;
22648;SDS011;11491;41.942;24.220;2024-03-02T06:55:06;18.15;;;11.57;;
22648;SDS011;11491;41.942;24.220;2024-03-02T06:57:34;31.33;;;19.15;;
22648;SDS011;11491;41.942;24.220;2024-03-02T07:00:01;27.83;;;20.33;;
22648;SDS011;11491;41.942;24.220;2024-03-02T07:02:30;26.20;;;17.20;;
22648;SDS011;11491;41.942;24.220;2024-03-02T07:04:57;27.15;;;18.52;;
22648;SDS011;11491;41.942;24.220;2024-03-02T07:07:24;34.67;;;23.77;;
22648;SDS011;11491;41.942;24.220;2024-03-02T07:09:51;34.35;;;23.13;;
22648;SDS011;11491;41.942;24.220;2024-03-02T07:12:17;37.22;;;23.67;;
22648;SDS011;11491;41.942;24.220;2024-03-02T07:14:45;36.80;;;24.52;;
22648;SDS011;11491;41.942;24.220;2024-03-02T07:17:29;34.78;;;22.52;;
22648;SDS011;11491;41.942;24.220;2024-03-02T07:19:56;41.35;;;27.98;;
22648;SDS011;11491;41.942;24.220;2024-03-02T07:22:22;40.65;;;27.35;;
22648;SDS011;11491;41.942;24.220;2024-03-02T07:24:49;50.10;;;34.05;;
22648;SDS011;11491;41.942;24.220;2024-03-02T07:27:16;51.80;;;33.38;;
22648;SDS011;11491;41.942;24.220;2024-03-02T07:29:43;51.55;;;33.92;;
22648;SDS011;11491;41.942;24.220;2024-03-02T07:32:11;52.90;;;33.38;;
22648;SDS011;11491;41.942;24.220;2024-03-02T07:34:38;52.08;;;35.40;;
22648;SDS011;11491;41.942;24.220;2024-03-02T07:37:05;53.78;;;36.17;;
22648;SDS011;11491;41.942;24.220;2024-03-02T07:39:32;55.70;;;39.50;;
22648;SDS011;11491;41.942;24.220;2024-03-02T07:41:59;61.33;;;38.78;;
22648;SDS011;11491;41.942;24.220;2024-03-02T07:44:26;52.88;;;31.40;;
22648;SDS011;11491;41.942;24.220;2024-03-02T07:46:53;81.13;;;36.97;;
22648;SDS011;11491;41.942;24.220;2024-03-02T07:49:21;58.65;;;32.92;;
22648;SDS011;11491;41.942;24.220;2024-03-02T07:51:48;38.20;;;26.40;;
22648;SDS011;11491;41.942;24.220;2024-03-02T07:54:14;44.17;;;29.08;;
22648;SDS011;11491;41.942;24.220;2024-03-02T07:56:41;51.75;;;34.35;;
22648;SDS011;11491;41.942;24.220;2024-03-02T07:59:08;51.35;;;34.17;;
22648;SDS011;11491;41.942;24.220;2024-03-02T08:01:35;54.15;;;37.13;;
22648;SDS011;11491;41.942;24.220;2024-03-02T08:04:02;55.88;;;40.47;;
22648;SDS011;11491;41.942;24.220;2024-03-02T08:06:30;60.17;;;44.15;;
22648;SDS011;11491;41.942;24.220;2024-03-02T08:08:58;51.80;;;38.28;;
22648;SDS011;11491;41.942;24.220;2024-03-02T08:11:25;52.40;;;40.90;;
22648;SDS011;11491;41.942;24.220;2024-03-02T08:13:54;61.45;;;45.95;;
22648;SDS011;11491;41.942;24.220;2024-03-02T08:16:20;62.00;;;46.10;;
22648;SDS011;11491;41.942;24.220;2024-03-02T08:18:50;29.92;;;24.58;;
22648;SDS011;11491;41.942;24.220;2024-03-02T08:21:18;26.65;;;21.77;;
22648;SDS011;11491;41.942;24.220;2024-03-02T08:23:46;22.42;;;17.05;;
22648;SDS011;11491;41.942;24.220;2024-03-02T08:26:13;15.85;;;13.23;;
22648;SDS011;11491;41.942;24.220;2024-03-02T08:28:39;14.05;;;11.35;;
22648;SDS011;11491;41.942;24.220;2024-03-02T08:31:06;26.45;;;18.35;;
22648;SDS011;11491;41.942;24.220;2024-03-02T08:33:33;14.07;;;11.65;;
22648;SDS011;11491;41.942;24.220;2024-03-02T08:36:01;16.63;;;12.65;;
22648;SDS011;11491;41.942;24.220;2024-03-02T08:38:28;25.60;;;20.80;;
22648;SDS011;11491;41.942;24.220;2024-03-02T08:40:56;22.45;;;17.23;;
22648;SDS011;11491;41.942;24.220;2024-03-02T08:43:23;26.63;;;19.05;;
22648;SDS011;11491;41.942;24.220;2024-03-02T08:45:50;29.30;;;19.77;;
22648;SDS011;11491;41.942;24.220;2024-03-02T08:48:17;28.42;;;18.88;;
22648;SDS011;11491;41.942;24.220;2024-03-02T08:50:45;31.90;;;19.98;;
22648;SDS011;11491;41.942;24.220;2024-03-02T08:53:11;27.45;;;19.92;;
22648;SDS011;11491;41.942;24.220;2024-03-02T08:55:43;24.27;;;18.45;;
22648;SDS011;11491;41.942;24.220;2024-03-02T08:58:11;25.65;;;18.92;;
22648;SDS011;11491;41.942;24.220;2024-03-02T09:00:38;18.35;;;14.35;;
22648;SDS011;11491;41.942;24.220;2024-03-02T09:03:05;14.32;;;11.75;;
22648;SDS011;11491;41.942;24.220;2024-03-02T09:05:32;13.30;;;10.90;;
22648;SDS011;11491;41.942;24.220;2024-03-02T09:07:59;16.25;;;13.38;;
22648;SDS011;11491;41.942;24.220;2024-03-02T09:10:26;12.57;;;10.65;;
22648;SDS011;11491;41.942;24.220;2024-03-02T09:12:52;78.53;;;51.65;;
22648;SDS011;11491;41.942;24.220;2024-03-02T09:15:20;51.60;;;39.40;;
22648;SDS011;11491;41.942;24.220;2024-03-02T09:17:47;47.63;;;34.05;;
22648;SDS011;11491;41.942;24.220;2024-03-02T09:20:14;52.20;;;35.55;;
22648;SDS011;11491;41.942;24.220;2024-03-02T09:22:41;24.70;;;14.70;;
22648;SDS011;11491;41.942;24.220;2024-03-02T09:25:08;19.85;;;13.35;;
22648;SDS011;11491;41.942;24.220;2024-03-02T09:27:36;14.55;;;10.30;;
22648;SDS011;11491;41.942;24.220;2024-03-02T09:30:03;18.75;;;14.18;;
22648;SDS011;11491;41.942;24.220;2024-03-02T09:32:32;22.25;;;16.58;;
22648;SDS011;11491;41.942;24.220;2024-03-02T09:34:59;20.00;;;12.55;;
22648;SDS011;11491;41.942;24.220;2024-03-02T09:37:26;15.23;;;11.45;;
22648;SDS011;11491;41.942;24.220;2024-03-02T09:39:54;18.95;;;14.63;;
22648;SDS011;11491;41.942;24.220;2024-03-02T09:42:20;19.17;;;13.05;;
22648;SDS011;11491;41.942;24.220;2024-03-02T09:44:47;15.98;;;11.65;;
22648;SDS011;11491;41.942;24.220;2024-03-02T09:47:14;18.65;;;14.65;;
22648;SDS011;11491;41.942;24.220;2024-03-02T09:49:43;26.15;;;23.35;;
22648;SDS011;11491;41.942;24.220;2024-03-02T09:52:09;12.55;;;9.20;;
22648;SDS011;11491;41.942;24.220;2024-03-02T09:54:36;16.38;;;10.90;;
22648;SDS011;11491;41.942;24.220;2024-03-02T09:57:04;13.00;;;8.95;;
22648;SDS011;11491;41.942;24.220;2024-03-02T09:59:31;22.67;;;12.98;;
22648;SDS011;11491;41.942;24.220;2024-03-02T10:01:58;17.05;;;12.82;;
22648;SDS011;11491;41.942;24.220;2024-03-02T10:04:25;11.02;;;7.55;;
22648;SDS011;11491;41.942;24.220;2024-03-02T10:07:00;12.20;;;8.32;;
22648;SDS011;11491;41.942;24.220;2024-03-02T10:09:37;69.72;;;45.15;;
22648;SDS011;11491;41.942;24.220;2024-03-02T10:12:04;43.97;;;28.40;;
22648;SDS011;11491;41.942;24.220;2024-03-02T10:14:32;27.80;;;19.42;;
22648;SDS011;11491;41.942;24.220;2024-03-02T10:17:01;16.77;;;11.77;;
22648;SDS011;11491;41.942;24.220;2024-03-02T10:19:30;43.88;;;28.45;;
22648;SDS011;11491;41.942;24.220;2024-03-02T10:21:59;26.73;;;22.42;;
22648;SDS011;11491;41.942;24.220;2024-03-02T10:24:27;13.13;;;10.23;;
22648;SDS011;11491;41.942;24.220;2024-03-02T10:27:00;17.98;;;12.90;;
22648;SDS011;11491;41.942;24.220;2024-03-02T10:29:29;14.48;;;11.43;;
22648;SDS011;11491;41.942;24.220;2024-03-02T10:31:56;13.02;;;10.10;;
22648;SDS011;11491;41.942;24.220;2024-03-02T10:34:24;19.83;;;15.27;;
22648;SDS011;11491;41.942;24.220;2024-03-02T10:36:51;19.05;;;13.18;;
22648;SDS011;11491;41.942;24.220;2024-03-02T10:39:19;22.75;;;15.88;;
22648;SDS011;11491;41.942;24.220;2024-03-02T10:41:46;31.63;;;23.63;;
22648;SDS011;11491;41.942;24.220;2024-03-02T10:44:15;27.45;;;20.90;;
22648;SDS011;11491;41.942;24.220;2024-03-02T10:46:43;56.63;;;40.25;;
22648;SDS011;11491;41.942;24.220;2024-03-02T10:49:13;53.92;;;39.25;;
22648;SDS011;11491;41.942;24.220;2024-03-02T10:51:40;37.72;;;26.80;;
22648;SDS011;11491;41.942;24.220;2024-03-02T10:54:07;32.67;;;24.38;;
22648;SDS011;11491;41.942;24.220;2024-03-02T10:56:37;34.05;;;25.40;;
22648;SDS011;11491;41.942;24.220;2024-03-02T10:59:06;34.90;;;27.95;;
22648;SDS011;11491;41.942;24.220;2024-03-02T11:01:42;29.00;;;23.58;;
22648;SDS011;11491;41.942;24.220;2024-03-02T11:04:11;24.90;;;20.55;;
22648;SDS011;11491;41.942;24.220;2024-03-02T11:06:41;27.35;;;23.30;;
22648;SDS011;11491;41.942;24.220;2024-03-02T11:09:14;45.88;;;38.65;;
22648;SDS011;11491;41.942;24.220;2024-03-02T11:11:44;19.70;;;16.95;;
22648;SDS011;11491;41.942;24.220;2024-03-02T11:14:16;15.10;;;11.02;;
22648;SDS011;11491;41.942;24.220;2024-03-02T11:16:47;15.38;;;11.88;;
22648;SDS011;11491;41.942;24.220;2024-03-02T11:19:15;12.20;;;8.90;;
22648;SDS011;11491;41.942;24.220;2024-03-02T11:21:42;22.52;;;15.68;;
22648;SDS011;11491;41.942;24.220;2024-03-02T11:26:59;23.25;;;16.42;;
22648;SDS011;11491;41.942;24.220;2024-03-02T11:29:45;22.48;;;17.95;;
22648;SDS011;11491;41.942;24.220;2024-03-02T11:32:16;23.75;;;18.35;;
22648;SDS011;11491;41.942;24.220;2024-03-02T11:34:44;30.05;;;22.98;;
22648;SDS011;11491;41.942;24.220;2024-03-02T11:37:14;22.70;;;17.33;;
22648;SDS011;11491;41.942;24.220;2024-03-02T11:39:42;28.85;;;21.15;;
22648;SDS011;11491;41.942;24.220;2024-03-02T11:42:12;26.83;;;18.95;;
22648;SDS011;11491;41.942;24.220;2024-03-02T11:44:41;42.40;;;34.20;;
22648;SDS011;11491;41.942;24.220;2024-03-02T11:47:10;16.50;;;12.80;;
22648;SDS011;11491;41.942;24.220;2024-03-02T11:49:41;21.08;;;15.63;;
22648;SDS011;11491;41.942;24.220;2024-03-02T11:52:10;21.48;;;14.88;;
22648;SDS011;11491;41.942;24.220;2024-03-02T11:54:38;40.15;;;28.48;;
22648;SDS011;11491;41.942;24.220;2024-03-02T11:57:12;42.42;;;29.83;;
22648;SDS011;11491;41.942;24.220;2024-03-02T11:59:40;41.60;;;27.52;;
22648;SDS011;11491;41.942;24.220;2024-03-02T12:02:06;28.92;;;24.23;;
22648;SDS011;11491;41.942;24.220;2024-03-02T12:04:40;112.72;;;57.88;;
22648;SDS011;11491;41.942;24.220;2024-03-02T12:07:08;49.65;;;32.63;;
22648;SDS011;11491;41.942;24.220;2024-03-02T12:09:35;52.17;;;39.78;;
22648;SDS011;11491;41.942;24.220;2024-03-02T12:12:03;37.22;;;31.02;;
22648;SDS011;11491;41.942;24.220;2024-03-02T12:14:32;18.13;;;15.68;;
22648;SDS011;11491;41.942;24.220;2024-03-02T12:17:00;35.00;;;24.88;;
22648;SDS011;11491;41.942;24.220;2024-03-02T12:19:28;25.42;;;18.80;;
22648;SDS011;11491;41.942;24.220;2024-03-02T12:21:55;16.63;;;13.23;;
22648;SDS011;11491;41.942;24.220;2024-03-02T12:24:22;16.88;;;12.55;;
22648;SDS011;11491;41.942;24.220;2024-03-02T12:26:50;12.45;;;9.23;;
22648;SDS011;11491;41.942;24.220;2024-03-02T12:29:18;16.83;;;12.13;;
22648;SDS011;11491;41.942;24.220;2024-03-02T12:31:48;11.98;;;9.18;;
22648;SDS011;11491;41.942;24.220;2024-03-02T12:34:16;11.95;;;8.88;;
22648;SDS011;11491;41.942;24.220;2024-03-02T12:36:43;11.48;;;8.20;;
22648;SDS011;11491;41.942;24.220;2024-03-02T12:39:12;15.52;;;9.70;;
22648;SDS011;11491;41.942;24.220;2024-03-02T12:41:40;13.65;;;9.48;;
22648;SDS011;11491;41.942;24.220;2024-03-02T12:44:07;13.38;;;10.60;;
22648;SDS011;11491;41.942;24.220;2024-03-02T12:46:34;27.45;;;16.40;;
22648;SDS011;11491;41.942;24.220;2024-03-02T12:49:07;23.00;;;15.60;;
22648;SDS011;11491;41.942;24.220;2024-03-02T12:51:36;13.55;;;10.05;;
22648;SDS011;11491;41.942;24.220;2024-03-02T12:54:05;16.92;;;12.27;;
22648;SDS011;11491;41.942;24.220;2024-03-02T12:56:32;24.83;;;14.80;;
22648;SDS011;11491;41.942;24.220;2024-03-02T12:58:59;14.57;;;10.57;;
22648;SDS011;11491;41.942;24.220;2024-03-02T13:01:26;19.85;;;12.05;;
22648;SDS011;11491;41.942;24.220;2024-03-02T13:03:53;20.05;;;11.90;;
22648;SDS011;11491;41.942;24.220;2024-03-02T13:06:23;21.85;;;12.23;;
22648;SDS011;11491;41.942;24.220;2024-03-02T13:08:52;20.13;;;12.75;;
22648;SDS011;11491;41.942;24.220;2024-03-02T13:11:20;15.35;;;10.23;;
22648;SDS011;11491;41.942;24.220;2024-03-02T13:13:47;23.10;;;20.60;;
22648;SDS011;11491;41.942;24.220;2024-03-02T13:16:14;15.77;;;11.80;;
22648;SDS011;11491;41.942;24.220;2024-03-02T13:18:44;41.65;;;28.05;;
22648;SDS011;11491;41.942;24.220;2024-03-02T13:21:11;127.97;;;86.75;;
22648;SDS011;11491;41.942;24.220;2024-03-02T13:23:39;80.35;;;53.47;;
22648;SDS011;11491;41.942;24.220;2024-03-02T13:26:06;94.93;;;70.95;;
22648;SDS011;11491;41.942;24.220;2024-03-02T13:28:35;67.93;;;43.53;;
22648;SDS011;11491;41.942;24.220;2024-03-02T13:31:03;38.20;;;25.00;;
22648;SDS011;11491;41.942;24.220;2024-03-02T13:33:31;28.13;;;17.05;;
22648;SDS011;11491;41.942;24.220;2024-03-02T13:35:58;20.55;;;14.05;;
22648;SDS011;11491;41.942;24.220;2024-03-02T13:38:26;25.02;;;16.02;;
22648;SDS011;11491;41.942;24.220;2024-03-02T13:40:54;11.85;;;7.95;;
22648;SDS011;11491;41.942;24.220;2024-03-02T13:43:21;18.08;;;15.38;;
22648;SDS011;11491;41.942;24.220;2024-03-02T13:45:49;30.90;;;23.75;;
22648;SDS011;11491;41.942;24.220;2024-03-02T13:48:17;42.58;;;24.45;;
22648;SDS011;11491;41.942;24.220;2024-03-02T13:50:43;26.00;;;15.60;;
22648;SDS011;11491;41.942;24.220;2024-03-02T13:53:10;13.02;;;8.35;;
22648;SDS011;11491;41.942;24.220;2024-03-02T13:55:37;14.73;;;10.70;;
22648;SDS011;11491;41.942;24.220;2024-03-02T13:58:08;26.20;;;19.30;;
22648;SDS011;11491;41.942;24.220;2024-03-02T14:00:35;7.57;;;5.82;;
22648;SDS011;11491;41.942;24.220;2024-03-02T14:03:03;11.23;;;7.15;;
22648;SDS011;11491;41.942;24.220;2024-03-02T14:05:30;5.68;;;4.13;;
22648;SDS011;11491;41.942;24.220;2024-03-02T14:07:58;7.88;;;5.40;;
22648;SDS011;11491;41.942;24.220;2024-03-02T14:10:25;7.97;;;5.18;;
22648;SDS011;11491;41.942;24.220;2024-03-02T14:12:53;11.57;;;8.10;;
22648;SDS011;11491;41.942;24.220;2024-03-02T14:15:22;15.38;;;10.32;;
22648;SDS011;11491;41.942;24.220;2024-03-02T14:17:49;24.08;;;15.65;;